createdAt,value
2023-04-12T00:02:27.384Z,4.15
2023-04-12T00:07:30.106Z,3.80
2023-04-12T00:12:31.625Z,4.28
2023-04-12T00:17:33.078Z,3.58
2023-04-12T00:22:34.542Z,4.22
2023-04-12T00:27:36.235Z,4.10
2023-04-12T00:32:37.792Z,4.45
2023-04-12T00:37:39.320Z,3.22
2023-04-12T00:42:41.093Z,3.50
2023-04-12T00:47:43.312Z,3.60
2023-04-12T00:52:44.977Z,3.60
2023-04-12T00:57:46.880Z,3.40
2023-04-12T01:02:50.568Z,3.20
2023-04-12T01:08:29.721Z,3.25
2023-04-12T01:13:48.957Z,3.25
2023-04-12T01:18:54.036Z,3.13
2023-04-12T01:24:07.487Z,3.20
2023-04-12T01:29:11.984Z,3.38
2023-04-12T01:34:16.016Z,3.13
2023-04-12T01:39:17.648Z,3.13
2023-04-12T01:44:19.349Z,3.40
2023-04-12T01:49:24.542Z,3.20
2023-04-12T01:54:32.671Z,3.00
2023-04-12T01:59:41.934Z,3.70
2023-04-12T02:09:44.819Z,3.47
2023-04-12T02:14:47.074Z,3.05
2023-04-12T02:19:48.562Z,3.25
2023-04-12T02:24:49.979Z,3.63
2023-04-12T02:29:51.415Z,3.30
2023-04-12T02:34:52.837Z,3.33
2023-04-12T02:39:56.951Z,3.60
2023-04-12T02:44:58.667Z,3.50
2023-04-12T02:50:00.162Z,3.53
2023-04-12T02:55:01.714Z,4.00
2023-04-12T03:00:08.238Z,3.80
2023-04-12T03:05:10.691Z,3.58
2023-04-12T03:10:12.764Z,3.63
2023-04-12T03:15:14.245Z,3.30
2023-04-12T03:20:17.171Z,3.78
2023-04-12T03:25:18.705Z,3.95
2023-04-12T03:30:20.165Z,4.18
2023-04-12T03:35:21.621Z,3.70
2023-04-12T03:40:23.073Z,4.65
2023-04-12T03:45:24.605Z,6.40
2023-04-12T03:50:29.446Z,5.07
2023-04-12T03:55:30.868Z,5.25
2023-04-12T04:00:32.545Z,5.55
2023-04-12T04:05:34.112Z,5.05
2023-04-12T04:10:36.160Z,4.75
2023-04-12T04:15:37.681Z,7.18
2023-04-12T04:20:39.106Z,7.20
2023-04-12T04:25:41.849Z,6.22
2023-04-12T04:30:46.058Z,5.72
2023-04-12T04:35:47.541Z,5.53
2023-04-12T04:40:53.377Z,5.93
2023-04-12T04:45:55.645Z,5.60
2023-04-12T04:50:57.399Z,5.40
2023-04-12T04:55:59.588Z,4.47
2023-04-12T05:01:01.053Z,5.40
2023-04-12T05:06:03.864Z,4.20
2023-04-12T05:11:05.616Z,3.95
2023-04-12T05:16:08.227Z,3.90
2023-04-12T05:21:09.683Z,4.10
2023-04-12T05:26:11.314Z,4.05
2023-04-12T05:31:13.057Z,4.00
2023-04-12T05:36:14.489Z,4.47
2023-04-12T05:41:16.034Z,5.00
2023-04-12T05:46:17.558Z,4.40
2023-04-12T05:51:25.179Z,4.53
2023-04-12T05:56:32.389Z,4.82
2023-04-12T06:01:34.341Z,4.97
2023-04-12T06:06:35.802Z,4.65
2023-04-12T06:11:39.153Z,4.78
2023-04-12T06:16:42.009Z,5.10
2023-04-12T06:21:43.582Z,5.20
2023-04-12T06:26:47.003Z,4.35
2023-04-12T06:31:48.683Z,5.32
2023-04-12T06:36:50.337Z,4.93
2023-04-12T06:41:51.743Z,4.82
2023-04-12T06:46:53.335Z,5.13
2023-04-12T06:51:54.780Z,4.85
2023-04-12T06:56:57.394Z,5.50
2023-04-12T07:01:58.970Z,5.28
2023-04-12T07:07:00.509Z,4.97
2023-04-12T07:12:02.824Z,5.32
2023-04-12T07:17:04.238Z,5.20
2023-04-12T07:22:05.658Z,5.22
2023-04-12T07:27:07.121Z,5.07
2023-04-12T07:32:09.924Z,4.88
2023-04-12T07:37:11.405Z,4.78
2023-04-12T07:42:12.911Z,5.30
2023-04-12T07:47:14.319Z,4.97
2023-04-12T07:52:15.949Z,4.20
2023-04-12T07:57:17.412Z,4.50
2023-04-12T08:02:24.787Z,3.42
2023-04-12T08:07:27.342Z,3.45
2023-04-12T08:12:28.760Z,3.20
2023-04-12T08:17:30.459Z,3.10
2023-04-12T08:22:31.905Z,3.60
2023-04-12T08:27:33.521Z,4.85
2023-04-12T08:32:37.526Z,3.55
2023-04-12T08:37:39.031Z,3.08
2023-04-12T08:42:41.382Z,2.10
2023-04-12T08:47:44.853Z,2.88
2023-04-12T08:52:49.148Z,2.60
2023-04-12T08:57:53.487Z,2.90
2023-04-12T09:02:55.081Z,3.22
2023-04-12T09:07:57.396Z,3.13
2023-04-12T09:13:00.222Z,2.72
2023-04-12T09:18:09.982Z,2.63
2023-04-12T09:23:22.467Z,3.05
2023-04-12T09:28:26.025Z,3.80
2023-04-12T09:33:39.015Z,3.25
2023-04-12T09:38:43.043Z,3.50
2023-04-12T09:43:44.605Z,3.38
2023-04-12T09:48:51.439Z,3.50
2023-04-12T09:53:53.582Z,3.08
2023-04-12T09:59:00.156Z,3.30
2023-04-12T10:04:02.830Z,3.20
2023-04-12T10:09:06.704Z,2.28
2023-04-12T10:14:09.918Z,2.17
2023-04-12T10:19:13.043Z,2.53
2023-04-12T10:24:15.333Z,2.50
2023-04-12T10:29:38.596Z,2.60
2023-04-12T10:34:42.706Z,2.40
2023-04-12T10:39:47.415Z,2.20
2023-04-12T10:44:50.394Z,2.35
2023-04-12T10:50:20.153Z,2.30
2023-04-12T10:55:28.137Z,1.73
2023-04-12T11:00:58.680Z,1.60
2023-04-12T11:06:19.636Z,2.03
2023-04-12T11:11:27.066Z,2.00
2023-04-12T11:16:28.586Z,1.95
2023-04-12T11:21:30.901Z,2.90
2023-04-12T11:26:32.441Z,2.60
2023-04-12T11:31:33.926Z,2.70
2023-04-12T11:36:35.422Z,2.30
2023-04-12T11:41:37.478Z,1.85
2023-04-12T11:46:39.089Z,1.90
2023-04-12T11:51:40.748Z,1.95
2023-04-12T11:56:42.520Z,2.05
2023-04-12T12:01:43.998Z,1.90
2023-04-12T12:06:46.784Z,2.40
2023-04-12T12:11:48.883Z,2.30
2023-04-12T12:16:55.440Z,2.88
2023-04-12T12:22:19.769Z,2.58
2023-04-12T12:27:25.169Z,2.88
2023-04-12T12:32:27.201Z,2.55
2023-04-12T12:37:30.213Z,2.67
2023-04-12T12:42:31.928Z,2.70
2023-04-12T12:47:33.539Z,2.20
2023-04-12T12:52:35.171Z,2.45
2023-04-12T12:57:37.071Z,2.10
2023-04-12T13:02:39.762Z,2.30
2023-04-12T13:07:41.384Z,2.22
2023-04-12T13:12:42.931Z,2.13
2023-04-12T13:17:44.471Z,1.92
2023-04-12T13:22:45.909Z,1.98
2023-04-12T13:27:48.992Z,1.55
2023-04-12T13:32:50.584Z,1.85
2023-04-12T13:37:52.047Z,2.13
2023-04-12T13:42:53.453Z,1.83
2023-04-12T13:47:54.967Z,2.00
2023-04-12T13:52:56.462Z,1.92
2023-04-12T13:57:57.929Z,1.92
2023-04-12T14:02:59.515Z,2.00
2023-04-12T14:08:01.118Z,1.92
2023-04-12T14:13:02.591Z,2.00
2023-04-12T14:18:04.138Z,1.70
2023-04-12T14:23:07.861Z,1.88
2023-04-12T14:28:09.506Z,1.92
2023-04-12T14:33:11.025Z,1.90
2023-04-12T14:38:12.659Z,1.80
2023-04-12T14:43:14.069Z,1.70
2023-04-12T14:48:15.664Z,1.90
2023-04-12T14:53:18.715Z,1.92
2023-04-12T14:58:20.173Z,2.00
2023-04-12T15:03:21.709Z,1.88
2023-04-12T15:08:23.686Z,1.90
2023-04-12T15:13:32.528Z,2.20
2023-04-12T15:18:39.412Z,1.85
2023-04-12T15:23:41.721Z,2.03
2023-04-12T15:28:43.226Z,2.10
2023-04-12T15:33:46.625Z,2.15
2023-04-12T15:38:48.046Z,2.00
2023-04-12T15:43:49.482Z,2.10
2023-04-12T15:48:51.213Z,2.13
2023-04-12T15:53:53.726Z,2.10
2023-04-12T15:59:01.198Z,2.22
2023-04-12T16:04:03.319Z,2.00
2023-04-12T16:09:05.037Z,2.38
2023-04-12T16:14:07.266Z,2.05
2023-04-12T16:19:08.689Z,2.38
2023-04-12T16:24:11.354Z,2.88
2023-04-12T16:29:13.602Z,2.95
2023-04-12T16:34:15.877Z,2.20
2023-04-12T16:39:17.538Z,2.88
2023-04-12T16:44:19.029Z,2.75
2023-04-12T16:49:20.847Z,2.78
2023-04-12T16:54:22.255Z,2.75
2023-04-12T16:59:24.280Z,3.13
2023-04-12T17:04:26.093Z,3.10
2023-04-12T17:09:28.056Z,2.83
2023-04-12T17:14:32.403Z,3.17
2023-04-12T17:19:33.965Z,3.58
2023-04-12T17:24:35.829Z,3.80
2023-04-12T17:29:37.272Z,4.35
2023-04-12T17:34:42.306Z,4.47
2023-04-12T17:39:44.120Z,5.00
2023-04-12T17:44:46.238Z,4.60
2023-04-12T17:49:47.657Z,5.30
2023-04-12T17:54:49.098Z,4.40
2023-04-12T17:59:50.501Z,7.07
2023-04-12T18:04:52.160Z,6.22
2023-04-12T18:09:53.570Z,5.82
2023-04-12T18:14:54.991Z,6.43
2023-04-12T18:19:56.417Z,6.20
2023-04-12T18:24:57.835Z,6.43
2023-04-12T18:30:01.323Z,7.15
2023-04-12T18:35:04.633Z,6.50
2023-04-12T18:40:07.447Z,6.28
2023-04-12T18:45:09.601Z,6.65
2023-04-12T18:50:11.555Z,5.80
2023-04-12T18:55:13.370Z,6.93
2023-04-12T19:00:15.109Z,7.30
2023-04-12T19:05:18.452Z,6.90
2023-04-12T19:10:20.223Z,7.32
2023-04-12T19:15:21.649Z,7.45
2023-04-12T19:20:23.118Z,8.35
2023-04-12T19:25:29.747Z,8.77
2023-04-12T19:30:32.004Z,8.75
2023-04-12T19:35:35.369Z,8.35
2023-04-12T19:40:36.917Z,6.53
2023-04-12T19:45:38.466Z,6.72
2023-04-12T19:50:39.965Z,7.78
2023-04-12T19:55:42.482Z,8.43
2023-04-12T20:00:43.937Z,8.27
2023-04-12T20:05:46.127Z,8.75
2023-04-12T20:10:47.622Z,10.35
2023-04-12T20:15:50.932Z,9.02
2023-04-12T20:20:53.243Z,10.68
2023-04-12T20:25:55.661Z,9.05
2023-04-12T20:30:57.750Z,9.95
2023-04-12T20:35:59.566Z,10.15
2023-04-12T20:41:01.001Z,10.15
2023-04-12T20:46:02.501Z,9.88
2023-04-12T20:51:04.566Z,10.32
2023-04-12T20:56:07.193Z,11.23
2023-04-12T21:01:14.521Z,10.75
2023-04-12T21:06:17.093Z,10.30
2023-04-12T21:11:18.496Z,11.98
2023-04-12T21:16:20.482Z,9.85
2023-04-12T21:21:22.434Z,11.80
2023-04-12T21:26:24.330Z,12.05
2023-04-12T21:31:26.127Z,11.20
2023-04-12T21:36:30.580Z,11.13
2023-04-12T21:41:32.095Z,11.25
2023-04-12T21:46:33.558Z,12.15
2023-04-12T21:51:35.300Z,11.70
2023-04-12T21:56:36.755Z,11.38
2023-04-12T22:01:38.371Z,12.07
2023-04-12T22:06:39.906Z,12.38
2023-04-12T22:11:41.337Z,13.13
2023-04-12T22:16:42.952Z,12.35
2023-04-12T22:21:45.401Z,11.10
2023-04-12T22:26:47.621Z,12.60
2023-04-12T22:31:49.028Z,12.27
2023-04-12T22:36:51.739Z,13.18
2023-04-12T22:41:53.467Z,12.45
2023-04-12T22:46:56.689Z,13.35
2023-04-12T22:51:58.469Z,14.45
2023-04-12T22:56:59.869Z,14.75
2023-04-12T23:02:01.761Z,15.27
2023-04-12T23:07:03.300Z,14.30
2023-04-12T23:12:06.324Z,15.15
2023-04-12T23:17:07.824Z,14.65
2023-04-12T23:22:10.487Z,14.93
2023-04-12T23:27:11.899Z,13.85
2023-04-12T23:32:13.978Z,14.75
2023-04-12T23:37:15.411Z,15.38
2023-04-12T23:42:17.003Z,14.07
2023-04-12T23:47:18.442Z,14.48
2023-04-12T23:52:19.874Z,13.35
2023-04-12T23:57:21.742Z,14.30
